Davidson, Canada
Current Conditions -  °F | °C
As of 6:00 AM on Wednesday 22 Oct 2014 (Local Time) from CYMJ Reporting Station
Broken Clouds Broken Clouds  
Wind Chill: 42°   Ceiling: 14000
Heat Index: 46°   Visibility: 15mi
Dew Point: 45°   Wind: 8mph
Humidity: 93%   Direction: 250°WSW
Pressure: 29.67"   Gusts: NA
Location:  51.27°N, 105.97°W
Report Text: CYMJ 221200Z 25007KT 15SM FEW064 SCT085 BKN140 08/07 A2967 RMKSC1AC3AC2 SLP055
Loading
Personal Weather Stations






























Interactive Weather Map
Tropical Storm Tracking
New forecast layout! Learn more

10-Day Weather Forecast

Advertisements
Track Severe Weather on mobile